createdAt,value
2019-02-20T00:00:15.820Z,1014.66
2019-02-20T00:01:15.793Z,1014.66
2019-02-20T00:02:15.784Z,1014.72
2019-02-20T00:03:15.765Z,1014.70
2019-02-20T00:04:15.798Z,1014.72
2019-02-20T00:05:15.747Z,1014.76
2019-02-20T00:06:15.734Z,1014.78
2019-02-20T00:07:15.724Z,1014.78
2019-02-20T00:08:15.767Z,1014.79
2019-02-20T00:09:15.699Z,1014.80
2019-02-20T00:10:15.688Z,1014.74
2019-02-20T00:11:15.688Z,1014.76
2019-02-20T00:12:15.665Z,1014.82
2019-02-20T00:13:15.704Z,1014.82
2019-02-20T00:14:15.687Z,1014.82
2019-02-20T00:15:15.634Z,1014.83
2019-02-20T00:16:15.662Z,1014.84
2019-02-20T00:17:15.654Z,1014.88
2019-02-20T00:18:15.600Z,1014.84
2019-02-20T00:19:15.591Z,1014.86
2019-02-20T00:20:15.576Z,1014.84
2019-02-20T00:21:15.567Z,1014.85
2019-02-20T00:22:15.557Z,1014.86
2019-02-20T00:23:15.613Z,1014.87
2019-02-20T00:24:15.538Z,1014.89
2019-02-20T00:25:15.527Z,1014.93
2019-02-20T00:26:15.510Z,1014.91
2019-02-20T00:27:15.503Z,1014.90
2019-02-20T00:28:15.532Z,1014.92
2019-02-20T00:29:15.477Z,1014.88
2019-02-20T00:30:15.482Z,1014.86
2019-02-20T00:31:15.457Z,1014.87
2019-02-20T00:32:15.445Z,1014.91
2019-02-20T00:33:15.440Z,1014.90
2019-02-20T00:34:15.485Z,1014.85
2019-02-20T00:35:15.424Z,1014.86
2019-02-20T00:36:15.405Z,1014.85
2019-02-20T00:37:15.399Z,1014.92
2019-02-20T00:38:15.422Z,1014.86
2019-02-20T00:39:15.404Z,1014.86
2019-02-20T00:40:15.401Z,1014.88
2019-02-20T00:41:15.348Z,1014.95
2019-02-20T00:42:15.335Z,1014.89
2019-02-20T00:43:15.326Z,1014.93
2019-02-20T00:44:15.355Z,1014.95
2019-02-20T00:45:15.307Z,1014.99
2019-02-20T00:46:15.294Z,1014.95
2019-02-20T00:47:15.281Z,1014.95
2019-02-20T00:48:15.339Z,1014.96
2019-02-20T00:49:15.258Z,1014.96
2019-02-20T00:50:15.247Z,1014.93
2019-02-20T00:51:15.239Z,1014.90
2019-02-20T00:52:15.226Z,1014.87
2019-02-20T00:53:15.214Z,1014.89
2019-02-20T00:54:15.243Z,1014.94
2019-02-20T00:55:15.195Z,1014.89
2019-02-20T00:56:15.181Z,1014.85
2019-02-20T00:57:15.209Z,1014.86
2019-02-20T00:58:15.156Z,1014.88
2019-02-20T00:59:16.870Z,1014.86
2019-02-20T01:00:15.134Z,1014.86
2019-02-20T01:01:15.124Z,1014.87
2019-02-20T01:02:15.117Z,1014.83
2019-02-20T01:03:15.149Z,1014.85
2019-02-20T01:04:15.093Z,1014.84
2019-02-20T01:05:15.088Z,1014.81
2019-02-20T01:06:15.069Z,1014.86
2019-02-20T01:07:15.062Z,1014.85
2019-02-20T01:08:15.124Z,1014.84
2019-02-20T01:09:15.036Z,1014.89
2019-02-20T01:10:15.027Z,1014.89
2019-02-20T01:11:15.031Z,1014.87
2019-02-20T01:12:15.002Z,1014.90
2019-02-20T01:13:14.995Z,1014.85
2019-02-20T01:14:15.021Z,1014.90
2019-02-20T01:15:14.978Z,1014.93
2019-02-20T01:16:14.970Z,1014.89
2019-02-20T01:17:14.992Z,1014.94
2019-02-20T01:18:14.948Z,1014.95
2019-02-20T01:19:14.938Z,1014.96
2019-02-20T01:20:14.940Z,1014.93
2019-02-20T01:21:14.906Z,1014.94
2019-02-20T01:22:14.936Z,1014.92
2019-02-20T01:23:14.880Z,1014.93
2019-02-20T01:24:14.873Z,1014.93
2019-02-20T01:25:14.871Z,1014.90
2019-02-20T01:26:14.848Z,1014.92
2019-02-20T01:27:14.838Z,1014.96
2019-02-20T01:28:14.868Z,1014.94
2019-02-20T01:29:14.816Z,1014.93
2019-02-20T01:30:14.808Z,1014.92
2019-02-20T01:31:14.794Z,1014.89
2019-02-20T01:32:14.787Z,1014.91
2019-02-20T01:33:16.554Z,1014.91
2019-02-20T01:34:14.815Z,1014.90
2019-02-20T01:35:14.753Z,1014.85
2019-02-20T01:36:14.742Z,1014.84
2019-02-20T01:37:14.727Z,1014.88
2019-02-20T01:38:14.718Z,1014.81
2019-02-20T01:39:14.704Z,1014.85
2019-02-20T01:40:14.737Z,1014.84
2019-02-20T01:41:14.691Z,1014.84
2019-02-20T01:42:14.672Z,1014.83
2019-02-20T01:43:14.705Z,1014.77
2019-02-20T01:44:14.656Z,1014.77
2019-02-20T01:45:14.638Z,1014.76
2019-02-20T01:46:14.633Z,1014.76
2019-02-20T01:47:14.634Z,1014.74
2019-02-20T01:48:14.610Z,1014.70
2019-02-20T01:49:14.636Z,1014.73
2019-02-20T01:50:14.592Z,1014.70
2019-02-20T01:51:14.571Z,1014.71
2019-02-20T01:52:14.565Z,1014.70
2019-02-20T01:53:14.552Z,1014.73
2019-02-20T01:54:14.582Z,1014.70
2019-02-20T01:55:14.527Z,1014.70
2019-02-20T01:56:14.518Z,1014.72
2019-02-20T01:57:14.561Z,1014.70
2019-02-20T01:58:14.495Z,1014.71
2019-02-20T01:59:14.499Z,1014.74
2019-02-20T02:00:14.472Z,1014.74
2019-02-20T02:01:14.462Z,1014.73
2019-02-20T02:02:14.450Z,1014.72
2019-02-20T02:03:14.483Z,1014.67
2019-02-20T02:04:14.475Z,1014.70
2019-02-20T02:05:15.795Z,1014.65
2019-02-20T02:06:14.448Z,1014.63
2019-02-20T02:07:14.401Z,1014.58
2019-02-20T02:08:14.387Z,1014.61
2019-02-20T02:09:14.382Z,1014.62
2019-02-20T02:10:14.363Z,1014.59
2019-02-20T02:11:14.376Z,1014.61
2019-02-20T02:12:14.383Z,1014.59
2019-02-20T02:13:14.331Z,1014.61
2019-02-20T02:14:14.317Z,1014.61
2019-02-20T02:15:20.579Z,1014.56
2019-02-20T02:16:15.294Z,1014.58
2019-02-20T02:17:14.285Z,1014.54
2019-02-20T02:18:14.317Z,1014.58
2019-02-20T02:19:14.265Z,1014.58
2019-02-20T02:20:14.251Z,1014.62
2019-02-20T02:21:14.241Z,1014.65
2019-02-20T02:22:14.270Z,1014.65
2019-02-20T02:23:19.902Z,1014.62
2019-02-20T02:24:15.250Z,1014.64
2019-02-20T02:25:14.196Z,1014.64
2019-02-20T02:26:14.186Z,1014.67
2019-02-20T02:27:14.221Z,1014.65
2019-02-20T02:28:14.161Z,1014.69
2019-02-20T02:29:14.197Z,1014.72
2019-02-20T02:30:14.142Z,1014.70
2019-02-20T02:31:14.136Z,1014.64
2019-02-20T02:32:14.119Z,1014.60
2019-02-20T02:33:14.112Z,1014.62
2019-02-20T02:34:14.096Z,1014.63
2019-02-20T02:35:14.131Z,1014.65
2019-02-20T02:36:14.082Z,1014.59
2019-02-20T02:37:14.063Z,1014.61
2019-02-20T02:38:14.053Z,1014.61
2019-02-20T02:39:14.090Z,1014.61
2019-02-20T02:40:14.061Z,1014.63
2019-02-20T02:41:14.023Z,1014.63
2019-02-20T02:42:14.016Z,1014.62
2019-02-20T02:43:13.997Z,1014.62
2019-02-20T02:44:13.988Z,1014.61
2019-02-20T02:45:14.015Z,1014.62
2019-02-20T02:46:13.987Z,1014.61
2019-02-20T02:47:13.952Z,1014.66
2019-02-20T02:48:13.942Z,1014.62
2019-02-20T02:49:14.035Z,1014.61
2019-02-20T02:50:13.936Z,1014.56
2019-02-20T02:51:13.913Z,1014.62
2019-02-20T02:52:13.940Z,1014.59
2019-02-20T02:53:13.885Z,1014.58
2019-02-20T02:54:13.898Z,1014.57
2019-02-20T02:55:13.868Z,1014.54
2019-02-20T02:56:13.861Z,1014.55
2019-02-20T02:57:13.843Z,1014.54
2019-02-20T02:58:13.887Z,1014.57
2019-02-20T02:59:13.844Z,1014.61
2019-02-20T03:00:13.839Z,1014.64
2019-02-20T03:01:13.804Z,1014.60
2019-02-20T03:02:13.787Z,1014.68
2019-02-20T03:03:13.778Z,1014.63
2019-02-20T03:04:13.813Z,1014.64
2019-02-20T03:05:13.756Z,1014.62
2019-02-20T03:06:13.750Z,1014.64
2019-02-20T03:07:13.735Z,1014.60
2019-02-20T03:08:13.724Z,1014.58
2019-02-20T03:09:13.715Z,1014.63
2019-02-20T03:10:13.776Z,1014.62
2019-02-20T03:11:13.691Z,1014.61
2019-02-20T03:12:13.679Z,1014.60
2019-02-20T03:13:13.670Z,1014.63
2019-02-20T03:14:13.699Z,1014.61
2019-02-20T03:15:13.670Z,1014.64
2019-02-20T03:16:13.636Z,1014.71
2019-02-20T03:17:13.622Z,1014.69
2019-02-20T03:18:13.620Z,1014.68
2019-02-20T03:19:13.601Z,1014.72
2019-02-20T03:20:13.636Z,1014.75
2019-02-20T03:21:13.580Z,1014.79
2019-02-20T03:22:13.571Z,1014.77
2019-02-20T03:23:13.561Z,1014.80
2019-02-20T03:24:13.558Z,1014.76
2019-02-20T03:25:13.533Z,1014.86
2019-02-20T03:26:13.570Z,1014.83
2019-02-20T03:27:13.512Z,1014.80
2019-02-20T03:28:13.547Z,1014.86
2019-02-20T03:29:13.488Z,1014.84
2019-02-20T03:30:13.482Z,1014.82
2019-02-20T03:31:13.520Z,1014.81
2019-02-20T03:32:13.460Z,1014.83
2019-02-20T03:33:13.447Z,1014.84
2019-02-20T03:34:13.485Z,1014.83
2019-02-20T03:35:13.430Z,1014.87
2019-02-20T03:36:13.412Z,1014.83
2019-02-20T03:37:13.406Z,1014.87
2019-02-20T03:38:13.451Z,1014.85
2019-02-20T03:39:13.381Z,1014.88
2019-02-20T03:40:13.368Z,1014.92
2019-02-20T03:41:13.363Z,1014.91
2019-02-20T03:42:13.393Z,1014.90
2019-02-20T03:43:13.338Z,1014.90
2019-02-20T03:44:13.322Z,1014.92
2019-02-20T03:45:13.318Z,1014.87
2019-02-20T03:46:13.301Z,1014.91
2019-02-20T03:47:13.336Z,1014.85
2019-02-20T03:48:13.281Z,1014.86
2019-02-20T03:49:13.270Z,1014.82
2019-02-20T03:50:13.300Z,1014.81
2019-02-20T03:51:13.250Z,1014.81
2019-02-20T03:52:13.247Z,1014.81
2019-02-20T03:53:13.226Z,1014.80
2019-02-20T03:54:13.223Z,1014.82
2019-02-20T03:55:13.214Z,1014.82
2019-02-20T03:56:13.231Z,1014.84
2019-02-20T03:57:13.192Z,1014.83
2019-02-20T03:58:13.194Z,1014.86
2019-02-20T03:59:13.164Z,1014.87
2019-02-20T04:00:13.159Z,1014.89
2019-02-20T04:01:13.208Z,1014.84
2019-02-20T04:02:13.125Z,1014.83
2019-02-20T04:03:13.116Z,1014.81
2019-02-20T04:04:13.108Z,1014.80
2019-02-20T04:05:13.095Z,1014.81
2019-02-20T04:06:13.084Z,1014.80
2019-02-20T04:07:13.126Z,1014.84
2019-02-20T04:08:13.108Z,1014.84
2019-02-20T04:09:13.051Z,1014.83
2019-02-20T04:10:13.045Z,1014.84
2019-02-20T04:11:13.030Z,1014.84
2019-02-20T04:12:13.042Z,1014.88
2019-02-20T04:13:13.055Z,1014.88
2019-02-20T04:14:12.999Z,1014.86
2019-02-20T04:15:12.998Z,1014.84
2019-02-20T04:16:13.016Z,1014.84
2019-02-20T04:17:12.963Z,1014.87
2019-02-20T04:18:12.953Z,1014.88
2019-02-20T04:19:12.944Z,1014.78
2019-02-20T04:20:12.932Z,1014.80
2019-02-20T04:21:12.923Z,1014.81
2019-02-20T04:22:12.954Z,1014.80
2019-02-20T04:23:12.905Z,1014.77
2019-02-20T04:24:12.890Z,1014.78
2019-02-20T04:25:12.920Z,1014.78
2019-02-20T04:26:12.866Z,1014.74
2019-02-20T04:27:12.856Z,1014.78
2019-02-20T04:28:12.848Z,1014.80
2019-02-20T04:29:12.832Z,1014.78
2019-02-20T04:30:12.822Z,1014.84
2019-02-20T04:31:12.854Z,1014.81
2019-02-20T04:32:12.806Z,1014.77
2019-02-20T04:33:12.792Z,1014.79
2019-02-20T04:34:12.776Z,1014.75
2019-02-20T04:35:12.770Z,1014.78
2019-02-20T04:36:12.802Z,1014.81
2019-02-20T04:37:12.764Z,1014.80
2019-02-20T04:38:12.750Z,1014.77
2019-02-20T04:39:12.855Z,1014.85
2019-02-20T04:40:12.907Z,1014.79
2019-02-20T04:41:12.710Z,1014.83
2019-02-20T04:42:12.693Z,1014.83
2019-02-20T04:43:12.680Z,1014.78
2019-02-20T04:44:12.673Z,1014.85
2019-02-20T04:45:12.657Z,1014.78
2019-02-20T04:46:12.717Z,1014.77
2019-02-20T04:47:12.643Z,1014.82
2019-02-20T04:48:12.674Z,1014.81
2019-02-20T04:49:12.613Z,1014.79
2019-02-20T04:50:12.608Z,1014.77
2019-02-20T04:51:12.598Z,1014.75
2019-02-20T04:52:12.675Z,1014.79
2019-02-20T04:53:12.573Z,1014.77
2019-02-20T04:54:13.740Z,1014.77
2019-02-20T04:55:12.553Z,1014.83
2019-02-20T04:56:12.548Z,1014.79
2019-02-20T04:57:12.530Z,1014.81
2019-02-20T04:58:12.569Z,1014.81
2019-02-20T04:59:12.507Z,1014.80
2019-02-20T05:00:12.492Z,1014.82
2019-02-20T05:01:12.487Z,1014.82
2019-02-20T05:02:12.471Z,1014.81
2019-02-20T05:03:12.462Z,1014.85
2019-02-20T05:04:12.491Z,1014.85
2019-02-20T05:05:12.453Z,1014.87
2019-02-20T05:06:12.438Z,1014.85
2019-02-20T05:07:12.424Z,1014.83
2019-02-20T05:08:12.418Z,1014.84
2019-02-20T05:09:12.444Z,1014.87
2019-02-20T05:10:12.428Z,1014.82
2019-02-20T05:11:12.382Z,1014.82
2019-02-20T05:12:12.402Z,1014.82
2019-02-20T05:13:12.351Z,1014.82
2019-02-20T05:14:12.342Z,1014.84
2019-02-20T05:15:12.389Z,1014.86
2019-02-20T05:16:12.318Z,1014.91
2019-02-20T05:17:12.351Z,1014.88
2019-02-20T05:18:12.299Z,1014.87
2019-02-20T05:19:12.295Z,1014.84
2019-02-20T05:20:12.304Z,1014.83
2019-02-20T05:21:12.315Z,1014.85
2019-02-20T05:22:12.252Z,1014.84
2019-02-20T05:23:12.262Z,1014.88
2019-02-20T05:24:12.240Z,1014.86
2019-02-20T05:25:12.224Z,1014.89
2019-02-20T05:26:12.208Z,1014.85
2019-02-20T05:27:12.240Z,1014.88
2019-02-20T05:28:12.197Z,1014.86
2019-02-20T05:29:12.218Z,1014.90
2019-02-20T05:30:12.169Z,1014.89
2019-02-20T05:31:12.209Z,1014.85
2019-02-20T05:32:12.142Z,1014.87
2019-02-20T05:33:12.132Z,1014.89
2019-02-20T05:34:12.128Z,1014.85
2019-02-20T05:35:12.108Z,1014.89
2019-02-20T05:36:12.101Z,1014.90
2019-02-20T05:37:12.132Z,1014.89
2019-02-20T05:38:12.077Z,1014.89
2019-02-20T05:39:12.068Z,1014.88
2019-02-20T05:40:12.067Z,1014.92
2019-02-20T05:41:12.046Z,1014.93
2019-02-20T05:42:12.032Z,1014.86
2019-02-20T05:43:12.060Z,1014.86
2019-02-20T05:44:12.053Z,1014.87
2019-02-20T05:45:12.002Z,1014.89
2019-02-20T05:46:11.991Z,1014.88
2019-02-20T05:47:11.982Z,1014.89
2019-02-20T05:48:11.969Z,1014.91
2019-02-20T05:49:11.955Z,1014.89
2019-02-20T05:50:11.982Z,1014.89
2019-02-20T05:51:11.932Z,1014.94
2019-02-20T05:52:11.921Z,1014.93
2019-02-20T05:53:11.958Z,1014.91
2019-02-20T05:54:11.940Z,1014.96
2019-02-20T05:55:11.936Z,1014.89
2019-02-20T05:56:11.876Z,1014.90
2019-02-20T05:57:11.865Z,1014.87
2019-02-20T05:58:11.901Z,1014.89
2019-02-20T05:59:11.893Z,1014.88
2019-02-20T06:00:11.876Z,1014.87
2019-02-20T06:01:11.831Z,1014.96
2019-02-20T06:02:11.828Z,1014.97
2019-02-20T06:03:11.820Z,1014.92
2019-02-20T06:04:11.793Z,1014.94
2019-02-20T06:05:11.826Z,1014.91
2019-02-20T06:06:11.772Z,1014.96
2019-02-20T06:07:11.809Z,1014.96
2019-02-20T06:08:11.795Z,1014.97
2019-02-20T06:09:11.933Z,1014.96
2019-02-20T06:10:11.735Z,1014.96
2019-02-20T06:11:14.773Z,1014.97
2019-02-20T06:12:11.741Z,1014.99
2019-02-20T06:13:11.694Z,1014.98
2019-02-20T06:14:11.685Z,1015.00
2019-02-20T06:15:11.721Z,1014.97
2019-02-20T06:16:11.668Z,1014.96
2019-02-20T06:17:11.659Z,1014.99
2019-02-20T06:18:11.682Z,1015.02
2019-02-20T06:19:11.627Z,1015.01
2019-02-20T06:20:11.627Z,1015.07
2019-02-20T06:21:11.655Z,1015.08
2019-02-20T06:22:11.604Z,1015.08
2019-02-20T06:23:11.715Z,1015.11
2019-02-20T06:24:11.586Z,1015.11
2019-02-20T06:25:11.666Z,1015.08
2019-02-20T06:26:11.596Z,1015.11
2019-02-20T06:27:11.545Z,1015.08
2019-02-20T06:28:11.537Z,1015.03
2019-02-20T06:29:11.517Z,1015.10
2019-02-20T06:30:11.566Z,1015.05
2019-02-20T06:31:11.542Z,1015.04
2019-02-20T06:32:11.504Z,1015.06
2019-02-20T06:33:11.487Z,1015.07
2019-02-20T06:34:11.858Z,1015.12
2019-02-20T06:35:11.453Z,1015.09
2019-02-20T06:36:11.447Z,1015.10
2019-02-20T06:37:11.429Z,1015.08
2019-02-20T06:38:11.778Z,1015.09
2019-02-20T06:39:11.430Z,1015.15
2019-02-20T06:40:11.443Z,1015.16
2019-02-20T06:41:11.403Z,1015.17
2019-02-20T06:42:11.377Z,1015.18
2019-02-20T06:43:11.359Z,1015.20
2019-02-20T06:44:11.397Z,1015.17
2019-02-20T06:45:11.437Z,1015.21
2019-02-20T06:46:11.395Z,1015.24
2019-02-20T06:47:11.401Z,1015.18
2019-02-20T06:48:11.315Z,1015.23
2019-02-20T06:49:11.339Z,1015.25
2019-02-20T06:50:11.294Z,1015.30
2019-02-20T06:51:11.274Z,1015.25
2019-02-20T06:52:11.310Z,1015.24
2019-02-20T06:53:11.266Z,1015.27
2019-02-20T06:54:11.251Z,1015.23
2019-02-20T06:55:11.253Z,1015.27
2019-02-20T06:56:11.224Z,1015.30
2019-02-20T06:57:11.205Z,1015.38
2019-02-20T06:58:11.278Z,1015.36
2019-02-20T06:59:11.259Z,1015.42
2019-02-20T07:00:11.228Z,1015.43
2019-02-20T07:01:11.190Z,1015.38
2019-02-20T07:02:11.159Z,1015.42
2019-02-20T07:03:11.160Z,1015.42
2019-02-20T07:04:11.129Z,1015.38
2019-02-20T07:05:11.118Z,1015.39
2019-02-20T07:06:11.200Z,1015.40
2019-02-20T07:07:11.106Z,1015.42
2019-02-20T07:08:11.158Z,1015.46
2019-02-20T07:09:11.111Z,1015.48
2019-02-20T07:10:11.101Z,1015.53
2019-02-20T07:11:11.153Z,1015.54
2019-02-20T07:12:11.156Z,1015.54
2019-02-20T07:13:11.048Z,1015.59
2019-02-20T07:14:11.065Z,1015.59
2019-02-20T07:15:11.099Z,1015.56
2019-02-20T07:16:11.037Z,1015.59
2019-02-20T07:17:11.002Z,1015.57
2019-02-20T07:18:10.986Z,1015.59
2019-02-20T07:19:10.971Z,1015.58
2019-02-20T07:20:11.018Z,1015.54
2019-02-20T07:21:10.948Z,1015.55
2019-02-20T07:22:10.933Z,1015.56
2019-02-20T07:23:10.965Z,1015.60
2019-02-20T07:24:10.933Z,1015.59
2019-02-20T07:25:10.943Z,1015.59
2019-02-20T07:26:10.890Z,1015.64
2019-02-20T07:27:10.885Z,1015.60
2019-02-20T07:28:10.876Z,1015.64
2019-02-20T07:29:10.912Z,1015.64
2019-02-20T07:30:10.842Z,1015.69
2019-02-20T07:31:10.836Z,1015.66
2019-02-20T07:32:10.828Z,1015.72
2019-02-20T07:33:10.819Z,1015.72
2019-02-20T07:34:10.877Z,1015.73
2019-02-20T07:35:10.792Z,1015.76
2019-02-20T07:36:10.787Z,1015.76
2019-02-20T07:37:10.808Z,1015.77
2019-02-20T07:38:10.762Z,1015.75
2019-02-20T07:39:10.748Z,1015.73
2019-02-20T07:40:10.789Z,1015.77
2019-02-20T07:41:10.727Z,1015.79
2019-02-20T07:42:10.719Z,1015.83
2019-02-20T07:43:10.717Z,1015.82
2019-02-20T07:44:10.690Z,1015.85
2019-02-20T07:45:10.712Z,1015.86
2019-02-20T07:46:10.713Z,1015.83
2019-02-20T07:47:10.714Z,1015.88
2019-02-20T07:48:10.654Z,1015.91
2019-02-20T07:49:10.692Z,1015.90
2019-02-20T07:50:10.742Z,1015.92
2019-02-20T07:51:10.658Z,1015.91
2019-02-20T07:52:10.631Z,1015.94
2019-02-20T07:53:10.649Z,1015.94
2019-02-20T07:54:10.777Z,1015.96
2019-02-20T07:55:13.715Z,1016.00
2019-02-20T07:56:10.756Z,1015.96
2019-02-20T07:57:10.558Z,1016.01
2019-02-20T07:58:10.540Z,1016.02
2019-02-20T07:59:10.574Z,1016.02
2019-02-20T08:00:10.596Z,1016.05
2019-02-20T08:01:10.548Z,1016.03
2019-02-20T08:02:10.499Z,1016.06
2019-02-20T08:03:10.519Z,1016.09
2019-02-20T08:04:10.563Z,1016.08
2019-02-20T08:05:10.477Z,1016.08
2019-02-20T08:06:10.526Z,1016.08
2019-02-20T08:07:10.443Z,1016.08
2019-02-20T08:08:10.447Z,1016.06
2019-02-20T08:09:10.437Z,1016.08
2019-02-20T08:10:10.421Z,1016.08
2019-02-20T08:11:14.620Z,1016.04
2019-02-20T08:12:10.457Z,1016.06
2019-02-20T08:13:10.421Z,1016.07
2019-02-20T08:14:10.506Z,1016.05
2019-02-20T08:15:10.973Z,1016.03
2019-02-20T08:16:10.375Z,1015.99
2019-02-20T08:17:10.328Z,1016.04
2019-02-20T08:18:10.515Z,1016.08
2019-02-20T08:19:10.369Z,1016.07
2019-02-20T08:20:10.302Z,1016.05
2019-02-20T08:21:10.288Z,1016.09
2019-02-20T08:22:10.293Z,1016.13
2019-02-20T08:23:10.275Z,1016.11
2019-02-20T08:24:10.362Z,1016.13
2019-02-20T08:25:10.256Z,1016.09
2019-02-20T08:26:10.253Z,1016.14
2019-02-20T08:27:10.252Z,1016.12
2019-02-20T08:28:10.347Z,1016.15
2019-02-20T08:29:10.245Z,1016.17
2019-02-20T08:30:10.257Z,1016.14
2019-02-20T08:31:10.182Z,1016.15
2019-02-20T08:32:10.218Z,1016.14
2019-02-20T08:33:10.206Z,1016.12
2019-02-20T08:34:10.181Z,1016.13
2019-02-20T08:35:10.144Z,1016.16
2019-02-20T08:36:10.379Z,1016.13
2019-02-20T08:37:10.160Z,1016.15
2019-02-20T08:38:10.103Z,1016.19
2019-02-20T08:39:11.195Z,1016.14
2019-02-20T08:40:10.089Z,1016.18
2019-02-20T08:41:10.066Z,1016.17
2019-02-20T08:42:10.094Z,1016.15
2019-02-20T08:43:10.053Z,1016.20
2019-02-20T08:44:10.036Z,1016.23
2019-02-20T08:45:10.094Z,1016.24
2019-02-20T08:46:10.027Z,1016.21
2019-02-20T08:47:10.663Z,1016.23
2019-02-20T08:48:10.127Z,1016.23
2019-02-20T08:49:09.997Z,1016.24
2019-02-20T08:50:10.117Z,1016.22
2019-02-20T08:51:10.118Z,1016.22
2019-02-20T08:52:10.007Z,1016.21
2019-02-20T08:53:09.959Z,1016.28
2019-02-20T08:54:10.360Z,1016.29
2019-02-20T08:55:10.000Z,1016.28
2019-02-20T08:56:10.393Z,1016.31
2019-02-20T08:57:10.097Z,1016.33
2019-02-20T08:58:09.964Z,1016.35
2019-02-20T08:59:14.990Z,1016.37
2019-02-20T09:00:09.878Z,1016.33
2019-02-20T09:01:09.858Z,1016.30
2019-02-20T09:02:09.864Z,1016.35
2019-02-20T09:03:09.865Z,1016.31
2019-02-20T09:04:09.929Z,1016.31
2019-02-20T09:05:09.861Z,1016.39
2019-02-20T09:06:09.819Z,1016.37
2019-02-20T09:07:09.786Z,1016.38
2019-02-20T09:08:09.790Z,1016.38
2019-02-20T09:09:09.768Z,1016.43
2019-02-20T09:10:09.767Z,1016.43
2019-02-20T09:11:09.814Z,1016.44
2019-02-20T09:12:09.730Z,1016.46
2019-02-20T09:13:09.718Z,1016.43
2019-02-20T09:14:10.226Z,1016.44
2019-02-20T09:15:09.706Z,1016.40
2019-02-20T09:16:09.757Z,1016.41
2019-02-20T09:17:09.688Z,1016.39
2019-02-20T09:18:09.964Z,1016.40
2019-02-20T09:19:09.687Z,1016.38
2019-02-20T09:20:09.679Z,1016.42
2019-02-20T09:21:09.645Z,1016.32
2019-02-20T09:22:09.702Z,1016.33
2019-02-20T09:23:09.657Z,1016.33
2019-02-20T09:24:09.810Z,1016.29
2019-02-20T09:25:09.590Z,1016.31
2019-02-20T09:26:09.615Z,1016.29
2019-02-20T09:27:09.567Z,1016.30
2019-02-20T09:28:09.569Z,1016.33
2019-02-20T09:29:09.595Z,1016.30
2019-02-20T09:30:09.530Z,1016.30
2019-02-20T09:31:09.516Z,1016.33
2019-02-20T09:32:09.555Z,1016.28
2019-02-20T09:33:09.780Z,1016.29
2019-02-20T09:34:09.491Z,1016.30
2019-02-20T09:35:09.490Z,1016.30
2019-02-20T09:36:09.542Z,1016.23
2019-02-20T09:37:09.507Z,1016.25
2019-02-20T09:38:10.518Z,1016.26
2019-02-20T09:39:09.853Z,1016.25
2019-02-20T09:40:09.497Z,1016.28
2019-02-20T09:41:09.476Z,1016.32
2019-02-20T09:42:09.393Z,1016.29
2019-02-20T09:43:09.385Z,1016.32
2019-02-20T09:44:09.421Z,1016.33
2019-02-20T09:45:09.444Z,1016.34
2019-02-20T09:46:09.354Z,1016.34
2019-02-20T09:47:09.375Z,1016.34
2019-02-20T09:48:09.434Z,1016.33
2019-02-20T09:49:09.342Z,1016.33
2019-02-20T09:50:09.369Z,1016.32
2019-02-20T09:51:09.386Z,1016.34
2019-02-20T09:52:09.312Z,1016.35
2019-02-20T09:53:09.310Z,1016.35
2019-02-20T09:54:09.265Z,1016.36
2019-02-20T09:55:09.297Z,1016.36
2019-02-20T09:56:09.242Z,1016.38
2019-02-20T09:57:09.307Z,1016.36
2019-02-20T09:58:09.367Z,1016.36
2019-02-20T09:59:09.215Z,1016.38
2019-02-20T10:00:09.358Z,1016.37
2019-02-20T10:01:09.354Z,1016.36
2019-02-20T10:02:09.210Z,1016.41
2019-02-20T10:03:09.248Z,1016.44
2019-02-20T10:04:09.275Z,1016.39
2019-02-20T10:05:09.316Z,1016.43
2019-02-20T10:06:09.155Z,1016.42
2019-02-20T10:07:09.783Z,1016.41
2019-02-20T10:08:09.545Z,1016.44
2019-02-20T10:09:09.956Z,1016.43
2019-02-20T10:10:09.174Z,1016.35
2019-02-20T10:11:09.124Z,1016.34
2019-02-20T10:12:09.100Z,1016.36
2019-02-20T10:13:11.437Z,1016.36
2019-02-20T10:14:09.033Z,1016.37
2019-02-20T10:15:09.067Z,1016.33
2019-02-20T10:16:09.023Z,1016.33
2019-02-20T10:17:09.090Z,1016.34
2019-02-20T10:18:09.004Z,1016.33
2019-02-20T10:19:09.180Z,1016.34
2019-02-20T10:20:08.973Z,1016.33
2019-02-20T10:21:09.021Z,1016.32
2019-02-20T10:22:08.958Z,1016.33
2019-02-20T10:23:09.050Z,1016.34
2019-02-20T10:24:08.974Z,1016.35
2019-02-20T10:25:09.331Z,1016.31
2019-02-20T10:26:08.990Z,1016.39
2019-02-20T10:27:08.894Z,1016.37
2019-02-20T10:28:08.948Z,1016.37
2019-02-20T10:29:08.885Z,1016.30
2019-02-20T10:30:08.930Z,1016.35
2019-02-20T10:31:08.888Z,1016.31
2019-02-20T10:32:08.843Z,1016.34
2019-02-20T10:33:08.815Z,1016.32
2019-02-20T10:34:08.882Z,1016.35
2019-02-20T10:35:08.814Z,1016.36
2019-02-20T10:36:08.836Z,1016.39
2019-02-20T10:37:08.781Z,1016.41
2019-02-20T10:38:08.770Z,1016.43
2019-02-20T10:39:08.744Z,1016.47
2019-02-20T10:40:08.774Z,1016.47
2019-02-20T10:41:08.748Z,1016.40
2019-02-20T10:42:08.862Z,1016.42
2019-02-20T10:43:08.750Z,1016.38
2019-02-20T10:44:08.757Z,1016.41
2019-02-20T10:45:08.733Z,1016.38
2019-02-20T10:46:09.166Z,1016.39
2019-02-20T10:47:08.778Z,1016.40
2019-02-20T10:48:09.399Z,1016.40
2019-02-20T10:49:09.165Z,1016.37
2019-02-20T10:50:09.138Z,1016.43
2019-02-20T10:51:08.988Z,1016.45
2019-02-20T10:52:08.714Z,1016.40
2019-02-20T10:53:08.600Z,1016.37
2019-02-20T10:54:08.577Z,1016.40
2019-02-20T10:55:08.562Z,1016.39
2019-02-20T10:56:09.665Z,1016.37
2019-02-20T10:57:08.545Z,1016.40
2019-02-20T10:58:08.531Z,1016.41
2019-02-20T10:59:08.527Z,1016.39
2019-02-20T11:00:08.525Z,1016.40
2019-02-20T11:01:08.641Z,1016.37
2019-02-20T11:02:08.907Z,1016.40
2019-02-20T11:03:08.502Z,1016.37
2019-02-20T11:04:08.566Z,1016.31
2019-02-20T11:05:08.448Z,1016.33
2019-02-20T11:06:08.452Z,1016.30
2019-02-20T11:07:08.473Z,1016.32
2019-02-20T11:08:08.423Z,1016.29
2019-02-20T11:09:08.421Z,1016.31
2019-02-20T11:10:08.396Z,1016.27
2019-02-20T11:11:08.420Z,1016.28
2019-02-20T11:12:08.435Z,1016.22
2019-02-20T11:13:08.430Z,1016.28
2019-02-20T11:14:08.356Z,1016.21
2019-02-20T11:15:08.354Z,1016.23
2019-02-20T11:16:08.358Z,1016.25
2019-02-20T11:17:08.313Z,1016.20
2019-02-20T11:18:08.318Z,1016.24
2019-02-20T11:19:08.551Z,1016.19
2019-02-20T11:20:08.553Z,1016.25
2019-02-20T11:21:08.911Z,1016.22
2019-02-20T11:22:09.365Z,1016.14
2019-02-20T11:23:08.290Z,1016.07
2019-02-20T11:24:08.237Z,1016.19
2019-02-20T11:25:08.297Z,1016.20
2019-02-20T11:26:08.217Z,1016.17
2019-02-20T11:27:08.272Z,1016.12
2019-02-20T11:28:08.259Z,1016.20
2019-02-20T11:29:08.191Z,1016.18
2019-02-20T11:30:08.183Z,1016.21
2019-02-20T11:31:08.215Z,1016.20
2019-02-20T11:32:08.154Z,1016.19
2019-02-20T11:33:08.155Z,1016.13
2019-02-20T11:34:08.260Z,1016.10
2019-02-20T11:35:08.122Z,1016.10
2019-02-20T11:36:08.162Z,1016.11
2019-02-20T11:37:08.157Z,1016.11
2019-02-20T11:38:08.115Z,1016.09
2019-02-20T11:39:08.092Z,1016.18
2019-02-20T11:40:08.080Z,1016.11
2019-02-20T11:41:08.051Z,1016.07
2019-02-20T11:42:08.060Z,1016.07
2019-02-20T11:43:08.217Z,1016.08
2019-02-20T11:44:08.013Z,1016.06
2019-02-20T11:45:07.998Z,1016.10
2019-02-20T11:46:08.011Z,1016.04
2019-02-20T11:47:08.005Z,1016.06
2019-02-20T11:48:07.981Z,1016.10
2019-02-20T11:49:08.038Z,1016.09
2019-02-20T11:50:07.999Z,1015.99
2019-02-20T11:51:07.960Z,1016.02
2019-02-20T11:52:07.958Z,1016.00
2019-02-20T11:53:07.947Z,1016.02
2019-02-20T11:54:07.933Z,1016.01
2019-02-20T11:55:07.934Z,1016.07
2019-02-20T11:56:07.925Z,1016.08
2019-02-20T11:57:07.868Z,1016.05
2019-02-20T11:58:07.862Z,1016.06
2019-02-20T11:59:07.927Z,1016.05
2019-02-20T12:00:07.830Z,1016.09
2019-02-20T12:01:07.836Z,1016.07
2019-02-20T12:02:07.828Z,1016.11
2019-02-20T12:03:07.849Z,1016.12
2019-02-20T12:04:07.795Z,1016.07
2019-02-20T12:05:07.783Z,1016.09